Time;durP1;ratioP1;P1;durP2;ratioP2;P2;SDS_P1;SDS_P2;PMS_P1;PMS_P2;Temp;Humidity;BMP_temperature;BMP_pressure;BME280_temperature;BME280_humidity;BME280_pressure;Samples;Min_cycle;Max_cycle;Signal;HPM_P1;HPM_P2
2022/04/12 00:00:37;;;;;;;2.53;2.20;;;23.70;31.80;;;;;;5054162;28;20911;-64
2022/04/12 00:03:04;;;;;;;3.60;2.50;;;23.70;31.80;;;;;;5053210;28;20404;-64
2022/04/12 00:05:30;;;;;;;3.20;2.28;;;23.70;31.90;;;;;;5056417;28;20811;-64
2022/04/12 00:07:56;;;;;;;3.43;2.30;;;23.70;31.90;;;;;;5074158;28;20494;-64
2022/04/12 00:10:22;;;;;;;3.17;2.40;;;23.60;31.80;;;;;;5055945;28;20506;-64
2022/04/12 00:12:48;;;;;;;4.88;2.28;;;23.60;31.90;;;;;;5073505;28;20883;-64
2022/04/12 00:15:14;;;;;;;3.30;2.60;;;23.60;32.00;;;;;;5073954;28;20392;-64
2022/04/12 00:20:26;;;;;;;2.80;2.17;;;23.60;31.90;;;;;;5074280;28;20382;-64
2022/04/12 00:22:55;;;;;;;3.45;2.30;;;23.60;32.00;;;;;;5073517;28;20376;-65
2022/04/12 00:25:22;;;;;;;3.35;2.25;;;23.60;32.00;;;;;;5073360;28;20412;-65
2022/04/12 00:27:49;;;;;;;4.55;2.40;;;23.60;32.00;;;;;;5073810;28;20419;-64
2022/04/12 00:30:15;;;;;;;3.15;2.50;;;23.60;32.10;;;;;;5073782;28;20419;-65
2022/04/12 00:32:42;;;;;;;3.28;2.40;;;23.60;32.00;;;;;;5073267;28;20384;-64
2022/04/12 00:35:08;;;;;;;4.53;2.80;;;23.50;32.00;;;;;;5055806;28;20388;-63
2022/04/12 00:37:34;;;;;;;3.35;2.20;;;23.50;32.00;;;;;;5073446;28;20395;-64
2022/04/12 00:40:00;;;;;;;3.00;2.50;;;23.50;32.00;;;;;;5073070;28;20388;-64
2022/04/12 00:42:25;;;;;;;3.33;2.30;;;23.50;32.00;;;;;;5073157;28;20483;-64
2022/04/12 00:44:51;;;;;;;3.80;2.30;;;23.50;32.00;;;;;;5072951;28;20430;-63
2022/04/12 00:47:17;;;;;;;3.20;2.60;;;23.60;32.00;;;;;;5073204;28;20437;-64
2022/04/12 00:49:42;;;;;;;3.33;2.50;;;23.60;31.90;;;;;;5073373;28;20396;-64
2022/04/12 00:52:09;;;;;;;3.37;2.37;;;23.50;32.00;;;;;;5073348;28;20392;-64
2022/04/12 00:54:37;;;;;;;3.78;2.17;;;23.60;32.20;;;;;;5055048;28;20404;-64
2022/04/12 00:57:06;;;;;;;2.70;2.30;;;23.60;31.90;;;;;;5073204;28;20918;-65
2022/04/12 00:59:32;;;;;;;2.40;2.20;;;23.50;31.90;;;;;;5073264;28;20491;-64
2022/04/12 01:01:58;;;;;;;3.47;2.28;;;23.50;31.90;;;;;;5071764;28;20391;-63
2022/04/12 01:04:24;;;;;;;2.88;2.03;;;23.50;31.90;;;;;;5073026;28;20392;-64
2022/04/12 01:06:50;;;;;;;3.35;2.20;;;23.50;31.90;;;;;;5072309;28;20392;-64
2022/04/12 01:09:17;;;;;;;2.75;1.90;;;23.50;31.90;;;;;;5073068;28;20575;-64
2022/04/12 01:11:48;;;;;;;2.65;2.05;;;23.50;31.90;;;;;;5072903;28;20384;-64
2022/04/12 01:14:14;;;;;;;3.20;2.08;;;23.50;32.00;;;;;;5072799;28;20490;-64
2022/04/12 01:16:40;;;;;;;2.92;2.03;;;23.50;32.00;;;;;;5072517;28;20382;-64
2022/04/12 01:19:06;;;;;;;2.63;1.77;;;23.50;32.10;;;;;;5072688;28;20799;-64
2022/04/12 01:21:39;;;;;;;3.03;1.97;;;23.50;32.00;;;;;;5072781;28;20398;-65
2022/04/12 01:24:06;;;;;;;3.00;2.05;;;23.50;32.30;;;;;;5072999;28;20379;-65
2022/04/12 01:26:32;;;;;;;3.50;2.10;;;23.40;31.90;;;;;;5072385;28;20388;-65
2022/04/12 01:28:59;;;;;;;2.35;2.00;;;23.40;32.00;;;;;;5072234;28;20469;-66
2022/04/12 01:31:26;;;;;;;2.65;2.10;;;23.40;31.90;;;;;;5072483;28;20379;-66
2022/04/12 01:33:53;;;;;;;2.72;2.00;;;23.40;31.90;;;;;;5072492;28;20392;-63
2022/04/12 01:36:19;;;;;;;2.95;2.00;;;23.40;31.90;;;;;;5071626;28;20442;-64
2022/04/12 01:38:44;;;;;;;2.55;1.70;;;23.40;31.90;;;;;;5071731;28;20407;-63
2022/04/12 01:41:10;;;;;;;2.57;1.80;;;23.40;31.90;;;;;;5072345;28;20384;-63
2022/04/12 01:43:36;;;;;;;3.05;1.70;;;23.40;32.00;;;;;;5072243;28;20399;-64
2022/04/12 01:46:02;;;;;;;4.50;1.80;;;23.40;32.00;;;;;;5072022;28;20396;-63
2022/04/12 01:48:28;;;;;;;2.27;1.60;;;23.40;32.00;;;;;;5070891;28;20499;-64
2022/04/12 01:50:53;;;;;;;2.17;1.70;;;23.40;32.10;;;;;;5053404;28;20414;-64
2022/04/12 01:53:19;;;;;;;2.80;1.73;;;23.40;32.00;;;;;;5072075;28;20391;-63
2022/04/12 01:55:45;;;;;;;3.72;1.85;;;23.40;32.10;;;;;;5053314;28;20430;-64
2022/04/12 01:58:10;;;;;;;3.27;1.70;;;23.30;32.10;;;;;;5071811;28;20429;-64
2022/04/12 02:00:36;;;;;;;2.90;1.80;;;23.30;32.00;;;;;;5071659;28;20392;-63
2022/04/12 02:03:06;;;;;;;2.50;1.67;;;23.30;32.00;;;;;;5071503;28;20411;-64
2022/04/12 02:05:31;;;;;;;2.92;1.70;;;23.30;32.00;;;;;;5071962;28;20391;-63
2022/04/12 02:07:57;;;;;;;2.90;1.87;;;23.30;32.00;;;;;;5071756;28;20407;-64
2022/04/12 02:10:23;;;;;;;1.98;1.60;;;23.30;31.90;;;;;;5070241;28;20398;-65
2022/04/12 02:12:49;;;;;;;2.73;1.60;;;23.30;31.90;;;;;;5071367;28;20473;-63
2022/04/12 02:15:16;;;;;;;2.42;1.73;;;23.30;32.00;;;;;;5071791;28;20412;-63
2022/04/12 02:17:41;;;;;;;2.85;1.80;;;23.30;32.00;;;;;;5071801;28;20396;-64
2022/04/12 02:20:07;;;;;;;2.40;1.60;;;23.30;32.60;;;;;;5071706;28;20399;-64
2022/04/12 02:22:34;;;;;;;2.40;1.77;;;23.30;32.00;;;;;;5071571;28;20380;-63
2022/04/12 02:24:59;;;;;;;2.97;1.80;;;23.30;32.00;;;;;;5071435;28;20474;-64
2022/04/12 02:27:25;;;;;;;2.65;1.75;;;23.30;32.00;;;;;;5070288;28;20470;-63
2022/04/12 02:29:50;;;;;;;2.22;1.60;;;23.30;32.10;;;;;;5071577;28;20412;-64
2022/04/12 02:32:16;;;;;;;2.17;1.40;;;23.30;32.10;;;;;;5071607;28;20384;-64
2022/04/12 02:34:42;;;;;;;2.65;1.60;;;23.20;32.10;;;;;;5071370;28;20475;-63
2022/04/12 02:37:07;;;;;;;2.60;1.80;;;23.20;32.70;;;;;;5071467;28;20390;-64
2022/04/12 02:39:33;;;;;;;2.42;1.50;;;23.20;32.10;;;;;;5071485;28;20387;-63
2022/04/12 02:41:59;;;;;;;2.03;1.60;;;23.20;32.10;;;;;;5071481;28;20778;-63
2022/04/12 02:44:25;;;;;;;2.08;1.60;;;23.20;32.10;;;;;;5071507;28;20391;-64
2022/04/12 02:46:51;;;;;;;2.10;1.50;;;23.20;32.10;;;;;;5070681;28;20407;-63
2022/04/12 02:49:16;;;;;;;2.08;1.80;;;23.20;32.10;;;;;;5071106;28;20422;-63
2022/04/12 02:51:42;;;;;;;2.30;1.55;;;23.20;32.10;;;;;;5071285;28;20496;-64
2022/04/12 02:54:08;;;;;;;3.00;1.90;;;23.20;32.10;;;;;;5071357;28;20399;-65
2022/04/12 02:56:33;;;;;;;2.10;1.63;;;23.20;32.10;;;;;;5071262;28;20384;-63
2022/04/12 02:58:59;;;;;;;2.80;1.70;;;23.20;32.10;;;;;;5070988;28;20414;-65
2022/04/12 03:01:25;;;;;;;2.40;1.53;;;23.20;32.00;;;;;;5071265;28;20475;-64
2022/04/12 03:03:51;;;;;;;2.22;1.80;;;23.20;32.10;;;;;;5071190;28;20478;-64
2022/04/12 03:06:16;;;;;;;3.65;1.67;;;23.20;32.10;;;;;;5069987;28;20470;-64
2022/04/12 03:08:42;;;;;;;4.30;1.83;;;23.10;31.80;;;;;;5070875;28;20504;-63
2022/04/12 03:11:08;;;;;;;4.47;1.70;;;23.20;32.20;;;;;;5070227;28;20387;-64
2022/04/12 03:13:33;;;;;;;2.87;1.70;;;23.20;32.00;;;;;;5070739;28;20449;-64
2022/04/12 03:15:59;;;;;;;5.72;1.77;;;23.20;32.30;;;;;;5071115;28;20740;-64
2022/04/12 03:18:25;;;;;;;4.47;1.80;;;23.30;32.50;;;;;;5071053;28;20384;-64
2022/04/12 03:20:51;;;;;;;4.50;1.90;;;23.30;33.00;;;;;;5070429;28;20387;-64
2022/04/12 03:23:21;;;;;;;2.70;1.60;;;23.30;33.30;;;;;;5072394;28;20392;-64
2022/04/12 03:25:46;;;;;;;6.60;1.80;;;23.30;33.30;;;;;;5072881;28;20968;-66
2022/04/12 03:28:14;;;;;;;4.28;1.60;;;23.30;33.50;;;;;;5071249;28;20416;-64
2022/04/12 03:30:40;;;;;;;5.78;1.90;;;23.30;34.50;;;;;;5070295;28;20530;-64
2022/04/12 03:33:05;;;;;;;3.70;1.80;;;23.30;34.20;;;;;;5070478;28;20887;-63
2022/04/12 03:35:32;;;;;;;4.03;1.70;;;23.30;34.10;;;;;;5070970;28;20384;-64
2022/04/12 03:38:01;;;;;;;4.67;2.00;;;23.30;33.80;;;;;;5069597;28;20427;-64
2022/04/12 03:40:30;;;;;;;3.30;1.90;;;23.30;34.10;;;;;;5070764;28;20375;-64
2022/04/12 03:42:59;;;;;;;4.50;1.80;;;23.20;34.30;;;;;;5070304;28;20449;-64
2022/04/12 03:45:24;;;;;;;3.55;1.85;;;23.30;33.70;;;;;;5070595;28;20395;-64
2022/04/12 03:47:50;;;;;;;2.87;1.80;;;23.30;33.80;;;;;;5070500;28;20412;-65
2022/04/12 03:50:15;;;;;;;4.35;1.85;;;23.30;33.70;;;;;;5070638;28;20396;-63
2022/04/12 03:52:41;;;;;;;3.17;1.60;;;23.40;34.70;;;;;;5070435;28;20380;-64
2022/04/12 03:55:10;;;;;;;4.80;1.60;;;23.40;34.30;;;;;;5070206;28;20879;-63
2022/04/12 03:57:36;;;;;;;3.83;1.67;;;23.40;34.10;;;;;;5070570;28;20407;-64
2022/04/12 04:00:02;;;;;;;5.28;1.70;;;23.40;33.70;;;;;;5071238;28;20398;-64
2022/04/12 04:02:28;;;;;;;3.15;1.50;;;23.40;33.50;;;;;;5056237;28;20392;-65
2022/04/12 04:04:53;;;;;;;4.60;1.77;;;23.40;33.20;;;;;;5073517;28;20388;-64
2022/04/12 04:07:19;;;;;;;7.10;1.90;;;23.40;33.30;;;;;;5072653;28;20469;-64
2022/04/12 04:09:45;;;;;;;6.47;2.10;;;23.40;33.50;;;;;;5073908;28;20952;-65
2022/04/12 04:12:11;;;;;;;6.93;2.10;;;23.30;33.20;;;;;;5073020;28;20883;-64
2022/04/12 04:14:39;;;;;;;8.37;2.30;;;23.30;33.30;;;;;;5073696;28;20427;-64
2022/04/12 04:17:04;;;;;;;7.32;1.92;;;23.30;33.30;;;;;;5073449;28;20894;-64
2022/04/12 04:19:30;;;;;;;9.02;2.20;;;23.30;33.30;;;;;;5073864;28;20415;-64
2022/04/12 04:21:56;;;;;;;11.53;2.23;;;23.30;34.00;;;;;;5073723;28;20471;-64
2022/04/12 04:24:23;;;;;;;8.23;1.83;;;23.30;34.20;;;;;;5066134;28;20801;-65
2022/04/12 04:26:54;;;;;;;4.93;2.10;;;23.30;34.00;;;;;;5052870;28;20465;-65
2022/04/12 04:29:22;;;;;;;5.63;2.10;;;23.30;33.70;;;;;;5051078;28;20417;-65
2022/04/12 04:31:48;;;;;;;5.90;2.00;;;23.30;33.50;;;;;;5053548;28;20375;-65
2022/04/12 04:34:13;;;;;;;6.25;2.15;;;23.30;33.10;;;;;;5053144;28;20397;-65
2022/04/12 04:36:39;;;;;;;5.40;2.07;;;23.30;33.30;;;;;;5051913;28;20394;-65
2022/04/12 04:39:05;;;;;;;4.15;2.10;;;23.30;33.60;;;;;;5053395;28;20484;-64
2022/04/12 04:41:31;;;;;;;4.07;1.83;;;23.30;32.80;;;;;;5053068;28;20385;-64
2022/04/12 04:43:56;;;;;;;3.35;1.75;;;23.30;32.70;;;;;;5053379;28;20389;-65
2022/04/12 04:46:22;;;;;;;8.30;2.10;;;23.30;32.70;;;;;;5053279;28;20767;-64
2022/04/12 04:48:48;;;;;;;6.47;2.27;;;23.30;32.50;;;;;;5035166;28;20422;-64
2022/04/12 04:51:13;;;;;;;6.50;2.13;;;23.20;32.70;;;;;;5051554;28;20389;-66
2022/04/12 04:53:39;;;;;;;6.22;2.00;;;23.20;33.00;;;;;;5053313;28;20865;-66
2022/04/12 04:56:05;;;;;;;7.68;2.40;;;23.30;33.00;;;;;;5052942;28;20394;-66
2022/04/12 04:58:31;;;;;;;8.20;2.08;;;23.30;33.00;;;;;;5053057;28;20397;-66
2022/04/12 05:00:57;;;;;;;6.30;2.20;;;23.30;32.90;;;;;;5052649;28;20738;-66
2022/04/12 05:03:22;;;;;;;5.80;2.10;;;23.30;32.80;;;;;;5052979;28;20865;-66
2022/04/12 05:05:48;;;;;;;4.38;2.17;;;23.30;32.90;;;;;;5053141;28;20495;-66
2022/04/12 05:08:13;;;;;;;6.70;2.30;;;23.30;32.80;;;;;;5035076;28;20417;-66
2022/04/12 05:10:39;;;;;;;7.90;2.30;;;23.30;32.70;;;;;;5052253;28;20392;-66
2022/04/12 05:13:05;;;;;;;5.05;2.40;;;23.30;32.70;;;;;;5052406;28;20393;-66
2022/04/12 05:15:31;;;;;;;4.40;2.30;;;23.30;32.70;;;;;;5052978;28;20396;-66
2022/04/12 05:17:56;;;;;;;3.97;2.22;;;23.30;32.60;;;;;;5034992;28;20750;-66
2022/04/12 05:20:25;;;;;;;6.45;2.20;;;23.30;32.60;;;;;;5052836;28;20388;-64
2022/04/12 05:22:51;;;;;;;5.60;2.38;;;23.30;32.60;;;;;;5052987;28;20477;-67
2022/04/12 05:25:17;;;;;;;6.65;2.55;;;23.30;32.80;;;;;;5052364;28;20463;-65
2022/04/12 05:27:43;;;;;;;6.75;2.60;;;23.30;33.10;;;;;;5051255;28;20893;-66
2022/04/12 05:30:12;;;;;;;7.60;2.60;;;23.30;33.90;;;;;;5051574;28;20404;-65
2022/04/12 05:32:38;;;;;;;6.47;2.53;;;23.40;34.10;;;;;;5052021;28;20485;-66
2022/04/12 05:35:05;;;;;;;6.90;2.50;;;23.40;34.00;;;;;;5050955;28;20920;-64
2022/04/12 05:37:33;;;;;;;5.47;2.20;;;23.50;34.20;;;;;;5051818;28;20758;-66
2022/04/12 05:40:03;;;;;;;6.65;2.60;;;23.50;34.00;;;;;;5051118;28;20397;-66
2022/04/12 05:42:29;;;;;;;5.20;2.40;;;23.50;34.30;;;;;;5048721;28;20449;-65
2022/04/12 05:44:54;;;;;;;5.75;2.25;;;23.50;34.50;;;;;;5032799;28;20390;-64
2022/04/12 05:47:20;;;;;;;5.70;2.77;;;23.50;34.30;;;;;;5050918;28;20478;-65
2022/04/12 05:49:45;;;;;;;6.45;2.58;;;23.60;34.40;;;;;;5051167;28;20409;-65
2022/04/12 05:52:11;;;;;;;5.90;2.60;;;23.60;34.40;;;;;;5051062;28;20426;-65
2022/04/12 05:54:37;;;;;;;5.93;2.70;;;23.60;34.40;;;;;;5050781;28;20397;-65
2022/04/12 05:57:02;;;;;;;7.40;2.60;;;23.60;34.00;;;;;;5049992;28;20512;-65
2022/04/12 05:59:28;;;;;;;5.30;2.80;;;23.60;34.10;;;;;;5037962;28;20394;-65
2022/04/12 06:01:54;;;;;;;4.50;2.72;;;23.60;34.00;;;;;;5052506;28;20860;-65
2022/04/12 06:04:20;;;;;;;3.72;2.70;;;23.60;33.80;;;;;;5051817;28;20435;-65
2022/04/12 06:06:46;;;;;;;6.30;2.93;;;23.60;33.80;;;;;;5051309;28;20402;-65
2022/04/12 06:09:11;;;;;;;4.85;2.92;;;23.60;33.70;;;;;;5051266;28;20483;-65
2022/04/12 06:11:37;;;;;;;4.77;2.73;;;23.60;33.50;;;;;;5051690;28;20386;-65
2022/04/12 06:14:03;;;;;;;4.57;2.80;;;23.60;33.50;;;;;;5051316;28;20403;-65
2022/04/12 06:16:28;;;;;;;5.07;2.73;;;23.60;33.30;;;;;;5050591;28;20946;-65
2022/04/12 06:18:55;;;;;;;5.20;3.00;;;23.60;33.40;;;;;;5051243;28;20394;-66
2022/04/12 06:21:22;;;;;;;4.00;2.90;;;23.60;33.20;;;;;;5051892;28;20388;-65
2022/04/12 06:23:47;;;;;;;4.38;2.65;;;23.60;33.10;;;;;;5050877;28;20408;-65
2022/04/12 06:26:13;;;;;;;4.20;2.72;;;23.60;33.20;;;;;;5050916;28;20456;-65
2022/04/12 06:28:38;;;;;;;4.13;2.70;;;23.70;33.10;;;;;;5051348;28;20417;-65
2022/04/12 06:31:05;;;;;;;4.50;2.70;;;23.70;33.00;;;;;;5032936;28;20401;-65
2022/04/12 06:33:31;;;;;;;4.22;2.88;;;23.70;32.90;;;;;;5051365;28;20477;-65
2022/04/12 06:35:57;;;;;;;3.10;2.50;;;23.70;32.90;;;;;;5051572;28;20477;-65
2022/04/12 06:38:22;;;;;;;3.70;2.80;;;23.70;32.80;;;;;;5052430;28;20442;-65
2022/04/12 06:40:51;;;;;;;3.15;2.58;;;23.70;32.70;;;;;;5051367;28;20487;-66
2022/04/12 06:43:18;;;;;;;3.53;2.38;;;23.70;33.00;;;;;;5051026;28;20869;-66
2022/04/12 06:45:44;;;;;;;4.03;2.70;;;23.70;32.70;;;;;;5047863;28;20405;-64
2022/04/12 06:48:10;;;;;;;4.45;2.30;;;23.70;32.60;;;;;;5048632;28;20428;-66
2022/04/12 06:50:36;;;;;;;3.47;2.40;;;23.70;32.60;;;;;;5032553;28;20401;-64
2022/04/12 06:53:05;;;;;;;5.05;2.80;;;23.80;32.70;;;;;;5050309;28;20754;-65
2022/04/12 06:55:30;;;;;;;3.60;2.42;;;23.80;32.60;;;;;;5032839;28;20390;-64
2022/04/12 06:57:56;;;;;;;4.00;2.57;;;23.80;32.50;;;;;;5050997;28;20897;-65
2022/04/12 07:00:22;;;;;;;3.20;2.53;;;23.80;32.50;;;;;;5050752;28;20909;-64
2022/04/12 07:02:48;;;;;;;4.32;2.38;;;23.80;32.50;;;;;;5050413;28;20401;-64
2022/04/12 07:05:15;;;;;;;3.25;2.17;;;23.80;32.40;;;;;;5047214;28;20394;-64
2022/04/12 07:07:42;;;;;;;3.22;2.50;;;23.90;32.40;;;;;;5032142;28;20460;-64
2022/04/12 07:10:10;;;;;;;3.20;2.40;;;23.80;32.40;;;;;;5052119;28;20424;-65
2022/04/12 07:12:36;;;;;;;2.85;2.13;;;23.90;32.40;;;;;;5057495;28;20390;-64
2022/04/12 07:15:03;;;;;;;3.20;2.10;;;23.90;32.20;;;;;;5061940;28;20404;-65
2022/04/12 07:17:29;;;;;;;2.50;2.30;;;23.90;32.20;;;;;;5050689;28;20423;-65
2022/04/12 07:19:55;;;;;;;3.88;2.10;;;24.00;32.10;;;;;;5066184;28;20395;-65
2022/04/12 07:22:23;;;;;;;3.58;2.25;;;24.00;32.10;;;;;;5052924;28;20489;-65
2022/04/12 07:24:48;;;;;;;3.47;2.22;;;24.00;32.40;;;;;;5051176;28;20405;-66
2022/04/12 07:27:14;;;;;;;2.90;2.15;;;24.00;32.00;;;;;;5051664;28;20386;-66
2022/04/12 07:29:40;;;;;;;2.77;2.07;;;24.00;32.00;;;;;;5032742;28;20460;-65
2022/04/12 07:32:06;;;;;;;2.85;2.00;;;24.00;31.80;;;;;;5067014;28;20383;-65
2022/04/12 07:34:31;;;;;;;2.58;2.00;;;24.00;31.70;;;;;;5037680;28;20384;-65
2022/04/12 07:36:57;;;;;;;2.35;2.15;;;24.10;31.80;;;;;;5058909;28;20412;-65
2022/04/12 07:39:24;;;;;;;2.80;2.10;;;24.00;31.70;;;;;;5054513;28;20404;-65
2022/04/12 07:41:51;;;;;;;2.92;1.92;;;24.00;31.80;;;;;;5059125;28;20389;-65
2022/04/12 07:44:18;;;;;;;2.17;1.90;;;24.10;31.80;;;;;;5068236;28;20399;-65
2022/04/12 07:46:44;;;;;;;2.47;2.17;;;24.10;31.80;;;;;;5060437;28;20800;-64
2022/04/12 07:49:11;;;;;;;3.55;2.10;;;24.10;31.80;;;;;;5070184;28;20950;-65
2022/04/12 07:51:37;;;;;;;3.25;2.08;;;24.10;31.80;;;;;;5074598;28;20734;-64
2022/04/12 07:54:04;;;;;;;2.95;1.98;;;24.10;31.80;;;;;;5045608;28;20444;-65
2022/04/12 07:56:31;;;;;;;2.50;2.00;;;24.20;31.80;;;;;;5049286;28;20412;-64
2022/04/12 07:58:57;;;;;;;3.15;2.00;;;24.20;31.70;;;;;;5053392;28;20387;-65
2022/04/12 08:01:22;;;;;;;2.30;1.70;;;24.20;31.40;;;;;;5054763;28;20410;-66
2022/04/12 08:03:48;;;;;;;2.75;1.95;;;24.20;31.60;;;;;;5056089;28;20748;-66
2022/04/12 08:06:14;;;;;;;2.55;1.88;;;24.20;31.50;;;;;;5056633;28;20390;-66
2022/04/12 08:08:40;;;;;;;2.80;2.00;;;24.20;31.50;;;;;;5058083;28;20421;-66
2022/04/12 08:11:06;;;;;;;2.23;1.80;;;24.30;31.30;;;;;;5054094;28;20385;-65
2022/04/12 08:13:33;;;;;;;2.17;1.70;;;24.20;31.10;;;;;;5073916;28;20441;-65
2022/04/12 08:15:59;;;;;;;2.22;1.70;;;24.30;31.10;;;;;;5065237;28;20386;-66
2022/04/12 08:18:25;;;;;;;2.13;1.60;;;24.30;31.20;;;;;;5064619;28;20918;-65
2022/04/12 08:20:50;;;;;;;2.00;1.77;;;24.30;31.00;;;;;;5057838;28;20387;-65
2022/04/12 08:23:17;;;;;;;1.98;1.70;;;24.30;31.20;;;;;;5053495;28;20987;-64
2022/04/12 08:25:43;;;;;;;3.60;1.77;;;24.30;31.40;;;;;;5053045;28;20408;-65
2022/04/12 08:28:09;;;;;;;2.35;1.80;;;24.30;31.30;;;;;;5052647;28;20409;-65
2022/04/12 08:30:35;;;;;;;2.65;1.80;;;24.40;31.40;;;;;;5062219;28;20477;-66
2022/04/12 08:33:02;;;;;;;6.60;1.70;;;24.40;31.30;;;;;;5073104;28;20868;-65
2022/04/12 08:35:28;;;;;;;6.25;1.90;;;24.40;31.20;;;;;;5072091;28;20395;-66
2022/04/12 08:37:54;;;;;;;7.10;2.03;;;24.40;31.40;;;;;;5054707;28;20432;-65
2022/04/12 08:40:20;;;;;;;5.03;1.80;;;24.40;31.50;;;;;;5053445;28;20428;-65
2022/04/12 08:42:46;;;;;;;5.80;1.92;;;24.40;32.10;;;;;;5053224;28;20404;-65
2022/04/12 08:45:13;;;;;;;5.50;1.70;;;24.40;31.60;;;;;;5054361;28;20386;-65
2022/04/12 08:47:39;;;;;;;6.57;2.05;;;24.50;32.10;;;;;;5069435;28;20399;-64
2022/04/12 08:50:07;;;;;;;2.80;1.58;;;24.50;31.70;;;;;;5051175;28;20389;-65
2022/04/12 08:52:34;;;;;;;2.85;1.63;;;24.50;31.50;;;;;;5038556;28;20401;-65
2022/04/12 08:55:01;;;;;;;2.75;1.60;;;24.50;31.40;;;;;;5064153;28;20879;-66
2022/04/12 08:57:28;;;;;;;5.70;1.77;;;24.50;31.40;;;;;;5057699;28;20762;-66
2022/04/12 08:59:54;;;;;;;4.87;1.70;;;24.60;31.20;;;;;;5071764;28;20380;-65
2022/04/12 09:02:19;;;;;;;4.60;1.63;;;24.60;31.20;;;;;;5066963;28;20385;-64
2022/04/12 09:04:45;;;;;;;5.07;1.80;;;24.60;31.30;;;;;;5052850;28;20400;-65
2022/04/12 09:07:11;;;;;;;5.25;1.77;;;24.60;31.30;;;;;;5034214;28;20807;-65
2022/04/12 09:09:39;;;;;;;4.00;1.60;;;24.60;31.90;;;;;;5052648;28;20418;-66
2022/04/12 09:12:13;;;;;;;4.35;1.50;;;24.60;31.10;;;;;;5059148;28;20397;-65
2022/04/12 09:14:40;;;;;;;5.17;1.63;;;24.60;31.00;;;;;;5057990;28;20396;-65
2022/04/12 09:17:11;;;;;;;3.55;1.50;;;24.60;31.00;;;;;;5057143;28;20475;-64
2022/04/12 09:19:44;;;;;;;3.35;1.42;;;24.60;31.00;;;;;;5053719;28;20470;-65
2022/04/12 09:22:12;;;;;;;3.00;1.40;;;24.70;31.00;;;;;;5056451;28;20396;-65
2022/04/12 09:24:49;;;;;;;5.93;1.63;;;24.70;31.00;;;;;;5035370;28;20394;-66
2022/04/12 09:27:26;;;;;;;6.53;1.63;;;24.60;30.80;;;;;;5055925;28;20420;-67
2022/04/12 09:29:59;;;;;;;3.72;1.40;;;24.60;30.40;;;;;;5047962;28;20415;-65
2022/04/12 09:32:27;;;;;;;3.83;1.40;;;24.60;30.40;;;;;;5045534;28;20745;-65
2022/04/12 09:34:54;;;;;;;2.85;1.40;;;24.70;30.50;;;;;;5053895;28;20401;-65
2022/04/12 09:37:25;;;;;;;2.67;1.30;;;24.70;30.50;;;;;;5036193;28;20745;-66
2022/04/12 09:40:02;;;;;;;4.15;1.40;;;24.70;30.50;;;;;;5051984;28;20407;-65
2022/04/12 09:42:41;;;;;;;2.45;1.20;;;24.70;30.60;;;;;;5051935;28;20381;-66
2022/04/12 09:45:10;;;;;;;4.68;1.35;;;24.70;30.50;;;;;;5049993;28;21133;-64
2022/04/12 09:47:36;;;;;;;2.40;1.42;;;24.70;30.50;;;;;;5050587;28;20480;-64
2022/04/12 09:50:03;;;;;;;2.00;1.20;;;24.60;30.50;;;;;;5050588;28;20444;-67
2022/04/12 09:52:30;;;;;;;3.47;1.40;;;24.70;30.60;;;;;;5052185;28;20393;-64
2022/04/12 09:55:03;;;;;;;3.72;1.38;;;24.60;30.80;;;;;;5033526;28;20401;-65
2022/04/12 09:57:32;;;;;;;4.50;1.50;;;24.60;30.70;;;;;;5051234;28;20472;-64
2022/04/12 09:59:58;;;;;;;5.55;1.70;;;24.60;30.80;;;;;;5033857;28;20480;-65
2022/04/12 10:02:26;;;;;;;4.78;1.40;;;24.60;30.80;;;;;;5051883;28;20400;-65
2022/04/12 10:04:55;;;;;;;3.27;1.30;;;24.60;30.80;;;;;;5051531;28;20900;-65
2022/04/12 10:07:23;;;;;;;4.25;1.40;;;24.60;30.90;;;;;;5051600;28;20424;-65
2022/04/12 10:09:51;;;;;;;6.18;1.38;;;24.60;30.90;;;;;;5051379;28;20417;-64
2022/04/12 10:12:18;;;;;;;4.40;1.50;;;24.60;30.90;;;;;;5051776;28;20382;-65
2022/04/12 10:14:45;;;;;;;4.95;1.60;;;24.60;31.00;;;;;;5051362;28;20417;-66
2022/04/12 10:17:15;;;;;;;3.35;1.50;;;24.60;31.00;;;;;;5050817;28;20496;-66
2022/04/12 10:19:43;;;;;;;3.90;1.42;;;24.60;31.50;;;;;;5051232;28;20386;-65
2022/04/12 10:22:09;;;;;;;4.70;1.60;;;24.60;31.70;;;;;;5033333;28;20404;-65
2022/04/12 10:24:36;;;;;;;3.45;1.38;;;24.70;31.60;;;;;;5051221;28;20469;-65
2022/04/12 10:27:02;;;;;;;2.78;1.30;;;24.70;31.30;;;;;;5052273;28;20377;-65
2022/04/12 10:29:28;;;;;;;4.50;1.48;;;24.70;31.20;;;;;;5050612;28;20512;-66
2022/04/12 10:31:59;;;;;;;3.03;1.40;;;24.80;31.20;;;;;;5034858;28;20472;-65
2022/04/12 10:34:25;;;;;;;3.65;1.45;;;24.80;31.20;;;;;;5034755;28;20409;-66
2022/04/12 10:36:56;;;;;;;3.40;1.35;;;24.80;31.10;;;;;;5051810;28;20430;-65
2022/04/12 10:39:28;;;;;;;2.85;1.30;;;24.80;31.10;;;;;;5034276;28;20413;-65
2022/04/12 10:41:55;;;;;;;4.35;1.20;;;24.80;31.00;;;;;;5050737;28;20862;-66
2022/04/12 10:44:22;;;;;;;3.58;1.40;;;24.80;32.00;;;;;;5051046;28;20402;-66
2022/04/12 10:46:53;;;;;;;5.30;1.60;;;24.80;32.10;;;;;;5050539;28;20461;-65
2022/04/12 10:49:20;;;;;;;3.58;1.20;;;24.80;32.70;;;;;;5049811;28;20814;-66
2022/04/12 10:51:55;;;;;;;4.40;1.58;;;24.80;32.60;;;;;;5050522;28;20476;-66
2022/04/12 10:54:29;;;;;;;4.00;1.30;;;24.90;33.00;;;;;;5051393;28;20389;-65
2022/04/12 10:57:16;;;;;;;3.20;1.30;;;24.90;32.70;;;;;;5051062;28;20381;-65
2022/04/12 10:59:57;;;;;;;3.30;1.30;;;25.00;32.20;;;;;;5051340;28;20390;-65
2022/04/12 11:02:29;;;;;;;5.22;1.25;;;25.00;32.40;;;;;;5050151;28;20406;-66
2022/04/12 11:04:55;;;;;;;5.03;1.58;;;24.90;31.50;;;;;;5052510;28;20396;-66
2022/04/12 11:07:30;;;;;;;3.70;1.53;;;24.90;31.50;;;;;;5032529;28;20405;-66
2022/04/12 11:10:16;;;;;;;3.33;1.27;;;24.90;31.60;;;;;;5057960;28;20401;-66
2022/04/12 11:12:43;;;;;;;3.17;1.38;;;24.90;31.60;;;;;;5034179;28;20403;-66
2022/04/12 11:15:21;;;;;;;3.35;1.50;;;24.80;31.60;;;;;;5058530;28;20414;-66
2022/04/12 11:17:47;;;;;;;4.82;1.33;;;24.80;31.70;;;;;;5056272;28;20812;-66
2022/04/12 11:20:22;;;;;;;2.60;1.30;;;24.80;31.80;;;;;;5069853;28;20419;-66
2022/04/12 11:22:56;;;;;;;3.35;1.25;;;24.80;31.70;;;;;;5065995;28;20387;-66
2022/04/12 11:25:22;;;;;;;3.33;1.10;;;24.80;31.70;;;;;;5065053;28;20488;-66
2022/04/12 11:27:56;;;;;;;4.25;1.38;;;24.80;31.80;;;;;;5056790;28;20385;-66
2022/04/12 11:30:23;;;;;;;4.15;1.40;;;24.80;31.60;;;;;;5057401;28;20473;-66
2022/04/12 11:32:48;;;;;;;2.70;1.40;;;24.70;31.70;;;;;;5074283;28;20443;-66
2022/04/12 11:35:15;;;;;;;3.40;1.20;;;24.70;31.70;;;;;;5055120;28;20413;-67
2022/04/12 11:37:41;;;;;;;2.95;1.23;;;24.70;31.80;;;;;;5038171;28;20398;-66
2022/04/12 11:40:07;;;;;;;3.15;1.42;;;24.70;31.70;;;;;;5054122;28;20495;-66
2022/04/12 11:42:38;;;;;;;2.22;1.30;;;24.70;31.80;;;;;;5063717;28;20421;-66
2022/04/12 11:45:04;;;;;;;1.98;1.05;;;24.70;31.80;;;;;;5054800;28;20389;-67
2022/04/12 11:47:38;;;;;;;2.88;1.25;;;24.70;31.80;;;;;;5032330;28;20421;-66
2022/04/12 11:50:17;;;;;;;3.15;1.27;;;24.70;31.70;;;;;;5017373;28;20441;-66
2022/04/12 11:52:46;;;;;;;2.35;1.10;;;24.70;31.70;;;;;;5041822;28;20811;-66
2022/04/12 11:55:13;;;;;;;2.92;1.20;;;24.70;31.70;;;;;;5053898;28;20480;-67
2022/04/12 11:57:40;;;;;;;1.80;1.20;;;24.70;31.70;;;;;;5018280;28;20388;-66
2022/04/12 12:00:08;;;;;;;3.60;1.48;;;24.70;31.70;;;;;;5014541;28;20405;-66
2022/04/12 12:02:38;;;;;;;2.20;1.33;;;24.70;31.70;;;;;;5014279;28;20381;-66
2022/04/12 12:05:06;;;;;;;2.13;1.15;;;24.70;31.70;;;;;;5030310;28;20399;-66
2022/04/12 12:07:36;;;;;;;2.80;1.33;;;24.70;31.60;;;;;;5033843;28;20395;-66
2022/04/12 12:10:14;;;;;;;2.03;1.30;;;24.70;31.60;;;;;;5032754;28;20410;-66
2022/04/12 12:12:45;;;;;;;2.00;1.30;;;24.70;31.70;;;;;;5033165;28;20399;-66
2022/04/12 12:15:25;;;;;;;2.20;1.30;;;24.70;31.70;;;;;;5035152;28;20565;-66
2022/04/12 12:17:59;;;;;;;1.73;1.10;;;24.70;31.70;;;;;;5032072;28;20935;-67
2022/04/12 12:20:29;;;;;;;1.50;1.20;;;24.70;31.70;;;;;;5031510;28;20399;-67
2022/04/12 12:23:00;;;;;;;1.88;1.13;;;24.70;31.70;;;;;;5033380;28;20387;-66
2022/04/12 12:25:41;;;;;;;1.80;1.20;;;24.70;31.70;;;;;;5033306;28;20387;-66
2022/04/12 12:28:15;;;;;;;1.55;1.10;;;24.70;31.80;;;;;;5033275;28;20898;-66
2022/04/12 12:30:46;;;;;;;2.80;1.17;;;24.70;31.80;;;;;;5033335;28;20403;-67
2022/04/12 12:33:12;;;;;;;1.80;1.20;;;24.70;31.80;;;;;;5032991;28;20409;-66
2022/04/12 12:35:41;;;;;;;1.98;1.10;;;24.70;31.80;;;;;;5033716;28;20399;-66
2022/04/12 12:38:21;;;;;;;2.30;1.33;;;24.70;31.80;;;;;;5033344;28;20516;-66
2022/04/12 12:40:46;;;;;;;1.70;1.33;;;24.70;31.80;;;;;;5033758;28;20387;-66
2022/04/12 12:43:14;;;;;;;2.22;1.40;;;24.70;31.90;;;;;;5048043;28;20406;-66
2022/04/12 12:45:42;;;;;;;2.00;1.20;;;24.70;31.80;;;;;;5037658;28;20471;-66
2022/04/12 12:48:13;;;;;;;1.95;1.20;;;24.70;31.80;;;;;;5052872;28;20773;-66
2022/04/12 12:50:39;;;;;;;2.38;1.20;;;24.70;31.80;;;;;;5053993;28;20479;-67